Benifaio, Spain
Current Conditions -  °F | °C
As of 10:30 AM on Tuesday 21 Oct 2014 (Local Time) from LEVC Reporting Station
Clear Clear  
Wind Chill: 77°   Ceiling: Unl
Heat Index: 78°   Visibility: 6mi
Dew Point: 48°   Wind: 6mph
Humidity: 36%   Direction: 310°NW
Pressure: 30.18"   Gusts: NA
Location:  39.28°N, 0.43°W
Report Text: LEVC 210830Z 31005KT CAVOK 25/09 Q1022 NOSIG
Loading
Personal Weather Stations






























Interactive Weather Map
Tropical Storm Tracking
New forecast layout! Learn more

10-Day Weather Forecast

Advertisements
Track Severe Weather on mobile